Waitsfield, VT (05673)

5:55 PM EST on December 02, 2016 (GMT -0500)
Center Fayston Rd | | Change Station

Elev 1381 ft 44.22 °N, 72.82 °W | Updated 35 seconds ago

Light Rain
Light Rain
35.4 °F
Feels Like 35 °F
N
1.1
Wind Variable Wind from West
Gusts 3.0 mph

Today
High -- | Low -- °F
--% Chance of Precip.
Yesterday
High -- | Low -- °F
Precip. -- in
Pressure 29.74 in
Visibility 10.0 miles
Clouds Scattered Clouds 1100 ft
Mostly Cloudy 1900 ft
Overcast 3100 ft
Windchill 35 °F
Dew Point 33 °F
Humidity 90%
Rainfall 0.02 in
Snow Depth Not available.
7:08 AM 4:13 PM
Waxing Crescent, 11% visible
METAR KMPV 022251Z AUTO 33008G17KT 10SM -RA SCT011 BKN019 OVC031 02/01 A2971 RMK AO2 RAB2153 SLP070 P0000 T00170011 TSNO
Pressure 29.74 in
Visibility 10.0 miles
Clouds Scattered Clouds 1100 ft
Mostly Cloudy 1900 ft
Overcast 3100 ft
Windchill 35 °F
Dew Point 33 °F
Humidity 90%
Rainfall 0.02 in
Snow Depth Not available.
7:08 AM 4:13 PM
Waxing Crescent, 11% visible
METAR KMPV 022251Z AUTO 33008G17KT 10SM -RA SCT011 BKN019 OVC031 02/01 A2971 RMK AO2 RAB2153 SLP070 P0000 T00170011 TSNO

10-Day Weather Forecast

Almanac

Astronomy

Dec. 02, 2016 Rise Set
Actual Time
Civil Twilight
Nautical Twilight
Astronomical Twilight
Moon
Length of Visible Light
Length of Day
Tomorrow will be .
, % of the Moon is Illuminated

Today's Extremes

State Highs State Lows

Community

WunderPhotos

Upload Photos

1,955,368 photos uploaded!

WunderBlog® & News

Nearby

Air Quality

  Air Quality AQ Index Pollutant
Not available.

Snow Depth

Station Depth Elevation

Earthquake Activity

City Distance Mag. Time & Date
Minimum magnitude displayed is 2.5.

Coastal Water Temperatures

Place Temperature

Stations

Nearby Weather Stations

Station Location Temp. Windchill Dew Point Humidity Wind Precip. Elev Updated Type
                   

Watches & Warnings

There are currently no watches in effect.